sensor_id;sensor_type;location;lat;lon;timestamp;temperature;humidity
5494;DHT22;2769;49.864;8.656;2022-09-11T00:01:28;18.70;99.90
5494;DHT22;2769;49.864;8.656;2022-09-11T00:03:57;19.30;99.90
5494;DHT22;2769;49.864;8.656;2022-09-11T00:06:25;18.80;99.90
5494;DHT22;2769;49.864;8.656;2022-09-11T00:08:57;18.70;99.90
5494;DHT22;2769;49.864;8.656;2022-09-11T00:11:28;18.50;99.90
5494;DHT22;2769;49.864;8.656;2022-09-11T00:13:57;18.50;99.90
5494;DHT22;2769;49.864;8.656;2022-09-11T00:16:28;19.00;99.90
5494;DHT22;2769;49.864;8.656;2022-09-11T00:18:57;18.60;99.90
5494;DHT22;2769;49.864;8.656;2022-09-11T00:21:27;18.70;99.90
5494;DHT22;2769;49.864;8.656;2022-09-11T00:23:56;18.60;99.90
5494;DHT22;2769;49.864;8.656;2022-09-11T00:26:24;18.50;99.90
5494;DHT22;2769;49.864;8.656;2022-09-11T00:28:52;18.50;99.90
5494;DHT22;2769;49.864;8.656;2022-09-11T00:31:23;19.40;99.90
5494;DHT22;2769;49.864;8.656;2022-09-11T00:33:52;18.80;99.90
5494;DHT22;2769;49.864;8.656;2022-09-11T00:36:22;18.50;99.90
5494;DHT22;2769;49.864;8.656;2022-09-11T00:38:52;19.40;99.90
5494;DHT22;2769;49.864;8.656;2022-09-11T00:41:22;18.60;99.90
5494;DHT22;2769;49.864;8.656;2022-09-11T00:43:57;18.80;99.90
5494;DHT22;2769;49.864;8.656;2022-09-11T00:46:35;18.70;99.90
5494;DHT22;2769;49.864;8.656;2022-09-11T00:49:13;19.30;99.90
5494;DHT22;2769;49.864;8.656;2022-09-11T00:51:45;18.60;99.90
5494;DHT22;2769;49.864;8.656;2022-09-11T00:54:17;18.90;99.90
5494;DHT22;2769;49.864;8.656;2022-09-11T00:56:47;19.00;99.90
5494;DHT22;2769;49.864;8.656;2022-09-11T00:59:16;19.00;99.90
5494;DHT22;2769;49.864;8.656;2022-09-11T01:01:46;19.20;99.90
5494;DHT22;2769;49.864;8.656;2022-09-11T01:04:16;19.10;99.90
5494;DHT22;2769;49.864;8.656;2022-09-11T01:06:44;19.00;99.90
5494;DHT22;2769;49.864;8.656;2022-09-11T01:09:12;18.90;99.90
5494;DHT22;2769;49.864;8.656;2022-09-11T01:11:46;19.10;99.90
5494;DHT22;2769;49.864;8.656;2022-09-11T01:14:28;19.80;99.90
5494;DHT22;2769;49.864;8.656;2022-09-11T01:17:07;19.30;99.90
5494;DHT22;2769;49.864;8.656;2022-09-11T01:19:57;19.00;99.90
5494;DHT22;2769;49.864;8.656;2022-09-11T01:25:47;19.00;99.90
5494;DHT22;2769;49.864;8.656;2022-09-11T01:28:25;18.90;99.90
5494;DHT22;2769;49.864;8.656;2022-09-11T01:30:59;18.70;99.90
5494;DHT22;2769;49.864;8.656;2022-09-11T01:33:33;19.40;99.90
5494;DHT22;2769;49.864;8.656;2022-09-11T01:36:05;19.20;99.90
5494;DHT22;2769;49.864;8.656;2022-09-11T01:38:42;18.50;99.90
5494;DHT22;2769;49.864;8.656;2022-09-11T01:41:16;18.60;99.90
5494;DHT22;2769;49.864;8.656;2022-09-11T01:43:50;19.40;99.90
5494;DHT22;2769;49.864;8.656;2022-09-11T01:46:24;18.60;99.90
5494;DHT22;2769;49.864;8.656;2022-09-11T01:48:56;18.60;99.90
5494;DHT22;2769;49.864;8.656;2022-09-11T01:51:30;18.40;99.90
5494;DHT22;2769;49.864;8.656;2022-09-11T01:54:00;18.50;99.90
5494;DHT22;2769;49.864;8.656;2022-09-11T01:56:34;18.50;99.90
5494;DHT22;2769;49.864;8.656;2022-09-11T01:59:07;18.80;99.90
5494;DHT22;2769;49.864;8.656;2022-09-11T02:01:40;19.00;99.90
5494;DHT22;2769;49.864;8.656;2022-09-11T02:04:14;19.10;99.90
5494;DHT22;2769;49.864;8.656;2022-09-11T02:06:47;19.10;99.90
5494;DHT22;2769;49.864;8.656;2022-09-11T02:09:20;19.10;99.90
5494;DHT22;2769;49.864;8.656;2022-09-11T02:11:51;19.10;99.90
5494;DHT22;2769;49.864;8.656;2022-09-11T02:14:24;19.00;99.90
5494;DHT22;2769;49.864;8.656;2022-09-11T02:17:02;18.90;99.90
5494;DHT22;2769;49.864;8.656;2022-09-11T02:19:32;19.00;99.90
5494;DHT22;2769;49.864;8.656;2022-09-11T02:22:00;19.00;99.90
5494;DHT22;2769;49.864;8.656;2022-09-11T02:24:28;19.10;99.90
5494;DHT22;2769;49.864;8.656;2022-09-11T02:27:00;18.90;99.90
5494;DHT22;2769;49.864;8.656;2022-09-11T02:29:30;19.00;99.90
5494;DHT22;2769;49.864;8.656;2022-09-11T02:31:59;18.90;99.90
5494;DHT22;2769;49.864;8.656;2022-09-11T02:34:30;18.90;99.90
5494;DHT22;2769;49.864;8.656;2022-09-11T02:37:12;18.80;99.90
5494;DHT22;2769;49.864;8.656;2022-09-11T02:40:05;18.90;99.90
5494;DHT22;2769;49.864;8.656;2022-09-11T02:42:50;18.70;99.90
5494;DHT22;2769;49.864;8.656;2022-09-11T02:45:33;18.90;99.90
5494;DHT22;2769;49.864;8.656;2022-09-11T02:48:20;19.00;99.90
5494;DHT22;2769;49.864;8.656;2022-09-11T02:50:58;18.60;99.90
5494;DHT22;2769;49.864;8.656;2022-09-11T02:53:34;18.50;99.90
5494;DHT22;2769;49.864;8.656;2022-09-11T02:56:12;18.70;99.90
5494;DHT22;2769;49.864;8.656;2022-09-11T02:58:47;18.50;99.90
5494;DHT22;2769;49.864;8.656;2022-09-11T03:01:17;18.60;99.90
5494;DHT22;2769;49.864;8.656;2022-09-11T03:03:45;18.70;99.90
5494;DHT22;2769;49.864;8.656;2022-09-11T03:06:16;18.80;99.90
5494;DHT22;2769;49.864;8.656;2022-09-11T03:08:45;18.90;99.90
5494;DHT22;2769;49.864;8.656;2022-09-11T03:11:13;18.70;99.90
5494;DHT22;2769;49.864;8.656;2022-09-11T03:13:44;18.80;99.90
5494;DHT22;2769;49.864;8.656;2022-09-11T03:16:12;18.60;99.90
5494;DHT22;2769;49.864;8.656;2022-09-11T03:18:42;18.60;99.90
5494;DHT22;2769;49.864;8.656;2022-09-11T03:21:10;18.60;99.90
5494;DHT22;2769;49.864;8.656;2022-09-11T03:23:38;18.50;99.90
5494;DHT22;2769;49.864;8.656;2022-09-11T03:26:06;18.60;99.90
5494;DHT22;2769;49.864;8.656;2022-09-11T03:28:34;18.60;99.90
5494;DHT22;2769;49.864;8.656;2022-09-11T03:31:03;18.80;99.90
5494;DHT22;2769;49.864;8.656;2022-09-11T03:33:31;18.90;99.90
5494;DHT22;2769;49.864;8.656;2022-09-11T03:36:00;19.10;99.90
5494;DHT22;2769;49.864;8.656;2022-09-11T03:38:29;19.10;99.90
5494;DHT22;2769;49.864;8.656;2022-09-11T03:40:57;19.20;99.90
5494;DHT22;2769;49.864;8.656;2022-09-11T03:43:25;19.30;99.90
5494;DHT22;2769;49.864;8.656;2022-09-11T03:45:53;19.30;99.90
5494;DHT22;2769;49.864;8.656;2022-09-11T03:48:21;19.30;99.90
5494;DHT22;2769;49.864;8.656;2022-09-11T03:50:51;19.40;99.90
5494;DHT22;2769;49.864;8.656;2022-09-11T03:53:21;19.00;99.90
5494;DHT22;2769;49.864;8.656;2022-09-11T03:55:49;19.00;99.90
5494;DHT22;2769;49.864;8.656;2022-09-11T03:58:17;19.10;99.90
5494;DHT22;2769;49.864;8.656;2022-09-11T04:00:46;19.30;99.90
5494;DHT22;2769;49.864;8.656;2022-09-11T04:03:15;19.20;99.90
5494;DHT22;2769;49.864;8.656;2022-09-11T04:05:55;19.10;99.90
5494;DHT22;2769;49.864;8.656;2022-09-11T04:08:25;19.30;99.90
5494;DHT22;2769;49.864;8.656;2022-09-11T04:10:56;19.30;99.90
5494;DHT22;2769;49.864;8.656;2022-09-11T04:13:26;19.30;99.90
5494;DHT22;2769;49.864;8.656;2022-09-11T04:15:58;19.30;99.90
5494;DHT22;2769;49.864;8.656;2022-09-11T04:18:26;19.30;99.90
5494;DHT22;2769;49.864;8.656;2022-09-11T04:20:54;19.20;99.90
5494;DHT22;2769;49.864;8.656;2022-09-11T04:23:22;19.20;99.90
5494;DHT22;2769;49.864;8.656;2022-09-11T04:25:52;19.20;99.90
5494;DHT22;2769;49.864;8.656;2022-09-11T04:28:20;18.80;99.90
5494;DHT22;2769;49.864;8.656;2022-09-11T04:30:49;18.80;99.90
5494;DHT22;2769;49.864;8.656;2022-09-11T04:33:17;18.80;99.90
5494;DHT22;2769;49.864;8.656;2022-09-11T04:35:45;18.60;99.90
5494;DHT22;2769;49.864;8.656;2022-09-11T04:38:13;18.70;99.90
5494;DHT22;2769;49.864;8.656;2022-09-11T04:40:41;18.90;99.90
5494;DHT22;2769;49.864;8.656;2022-09-11T04:43:11;18.90;99.90
5494;DHT22;2769;49.864;8.656;2022-09-11T04:45:39;18.90;99.90
5494;DHT22;2769;49.864;8.656;2022-09-11T04:48:07;18.90;99.90
5494;DHT22;2769;49.864;8.656;2022-09-11T04:50:35;18.80;99.90
5494;DHT22;2769;49.864;8.656;2022-09-11T04:53:03;18.90;99.90
5494;DHT22;2769;49.864;8.656;2022-09-11T04:55:32;19.00;99.90
5494;DHT22;2769;49.864;8.656;2022-09-11T04:58:00;18.80;99.90
5494;DHT22;2769;49.864;8.656;2022-09-11T05:00:30;18.80;99.90
5494;DHT22;2769;49.864;8.656;2022-09-11T05:02:59;19.00;99.90
5494;DHT22;2769;49.864;8.656;2022-09-11T05:05:27;19.00;99.90
5494;DHT22;2769;49.864;8.656;2022-09-11T05:07:55;18.80;99.90
5494;DHT22;2769;49.864;8.656;2022-09-11T05:10:23;18.80;99.90
5494;DHT22;2769;49.864;8.656;2022-09-11T05:12:52;19.00;99.90
5494;DHT22;2769;49.864;8.656;2022-09-11T05:15:21;19.00;99.90
5494;DHT22;2769;49.864;8.656;2022-09-11T05:17:50;19.00;99.90
5494;DHT22;2769;49.864;8.656;2022-09-11T05:20:18;18.90;99.90
5494;DHT22;2769;49.864;8.656;2022-09-11T05:22:46;19.00;99.90
5494;DHT22;2769;49.864;8.656;2022-09-11T05:25:14;19.20;99.90
5494;DHT22;2769;49.864;8.656;2022-09-11T05:27:43;19.10;99.90
5494;DHT22;2769;49.864;8.656;2022-09-11T05:30:11;18.90;99.90
5494;DHT22;2769;49.864;8.656;2022-09-11T05:32:39;18.70;99.90
5494;DHT22;2769;49.864;8.656;2022-09-11T05:35:09;18.80;99.90
5494;DHT22;2769;49.864;8.656;2022-09-11T05:37:37;18.80;99.90
5494;DHT22;2769;49.864;8.656;2022-09-11T05:40:06;19.00;99.90
5494;DHT22;2769;49.864;8.656;2022-09-11T05:42:35;19.10;99.90
5494;DHT22;2769;49.864;8.656;2022-09-11T05:45:03;19.10;99.90
5494;DHT22;2769;49.864;8.656;2022-09-11T05:47:32;19.10;99.90
5494;DHT22;2769;49.864;8.656;2022-09-11T05:50:00;19.30;99.90
5494;DHT22;2769;49.864;8.656;2022-09-11T05:52:30;19.40;99.90
5494;DHT22;2769;49.864;8.656;2022-09-11T05:55:00;19.20;99.90
5494;DHT22;2769;49.864;8.656;2022-09-11T05:57:28;18.80;99.90
5494;DHT22;2769;49.864;8.656;2022-09-11T05:59:56;18.70;99.90
5494;DHT22;2769;49.864;8.656;2022-09-11T06:02:24;18.90;99.90
5494;DHT22;2769;49.864;8.656;2022-09-11T06:04:52;18.80;99.90
5494;DHT22;2769;49.864;8.656;2022-09-11T06:07:23;19.00;99.90
5494;DHT22;2769;49.864;8.656;2022-09-11T06:09:53;19.10;99.90
5494;DHT22;2769;49.864;8.656;2022-09-11T06:12:28;19.10;99.90
5494;DHT22;2769;49.864;8.656;2022-09-11T06:14:56;19.10;99.90
5494;DHT22;2769;49.864;8.656;2022-09-11T06:17:24;19.30;99.90
5494;DHT22;2769;49.864;8.656;2022-09-11T06:19:54;19.40;99.90
5494;DHT22;2769;49.864;8.656;2022-09-11T06:22:22;19.40;99.90
5494;DHT22;2769;49.864;8.656;2022-09-11T06:24:50;19.30;99.90
5494;DHT22;2769;49.864;8.656;2022-09-11T06:27:19;19.30;99.90
5494;DHT22;2769;49.864;8.656;2022-09-11T06:29:47;19.30;99.90
5494;DHT22;2769;49.864;8.656;2022-09-11T06:32:16;19.20;99.90
5494;DHT22;2769;49.864;8.656;2022-09-11T06:34:45;19.20;99.90
5494;DHT22;2769;49.864;8.656;2022-09-11T06:37:13;19.20;99.90
5494;DHT22;2769;49.864;8.656;2022-09-11T06:39:41;19.30;99.90
5494;DHT22;2769;49.864;8.656;2022-09-11T06:42:09;19.30;99.90
5494;DHT22;2769;49.864;8.656;2022-09-11T06:44:39;19.30;99.90
5494;DHT22;2769;49.864;8.656;2022-09-11T06:47:08;19.30;99.90
5494;DHT22;2769;49.864;8.656;2022-09-11T06:49:36;19.30;99.90
5494;DHT22;2769;49.864;8.656;2022-09-11T06:52:04;19.40;99.90
5494;DHT22;2769;49.864;8.656;2022-09-11T06:54:32;19.40;99.90
5494;DHT22;2769;49.864;8.656;2022-09-11T06:57:00;19.30;99.90
5494;DHT22;2769;49.864;8.656;2022-09-11T06:59:28;19.50;99.90
5494;DHT22;2769;49.864;8.656;2022-09-11T07:01:58;19.60;99.90
5494;DHT22;2769;49.864;8.656;2022-09-11T07:04:26;19.60;99.90
5494;DHT22;2769;49.864;8.656;2022-09-11T07:06:54;19.60;99.90
5494;DHT22;2769;49.864;8.656;2022-09-11T07:09:22;19.80;99.90
5494;DHT22;2769;49.864;8.656;2022-09-11T07:11:50;19.90;99.90
5494;DHT22;2769;49.864;8.656;2022-09-11T07:14:19;19.50;99.90
5494;DHT22;2769;49.864;8.656;2022-09-11T07:16:49;19.50;99.90
5494;DHT22;2769;49.864;8.656;2022-09-11T07:19:22;19.60;99.90
5494;DHT22;2769;49.864;8.656;2022-09-11T07:21:51;19.90;99.90
5494;DHT22;2769;49.864;8.656;2022-09-11T07:24:19;20.20;99.90
5494;DHT22;2769;49.864;8.656;2022-09-11T07:26:47;20.20;99.90
5494;DHT22;2769;49.864;8.656;2022-09-11T07:29:19;20.00;99.90
5494;DHT22;2769;49.864;8.656;2022-09-11T07:31:48;19.60;99.90
5494;DHT22;2769;49.864;8.656;2022-09-11T07:34:16;19.80;99.90
5494;DHT22;2769;49.864;8.656;2022-09-11T07:36:45;20.30;99.90
5494;DHT22;2769;49.864;8.656;2022-09-11T07:39:13;20.40;99.90
5494;DHT22;2769;49.864;8.656;2022-09-11T07:41:41;20.40;99.90
5494;DHT22;2769;49.864;8.656;2022-09-11T07:44:09;20.40;99.90
5494;DHT22;2769;49.864;8.656;2022-09-11T07:46:37;20.20;99.90
5494;DHT22;2769;49.864;8.656;2022-09-11T07:49:07;20.50;99.90
5494;DHT22;2769;49.864;8.656;2022-09-11T07:51:36;20.50;99.90
5494;DHT22;2769;49.864;8.656;2022-09-11T07:54:07;20.20;99.90
5494;DHT22;2769;49.864;8.656;2022-09-11T07:56:35;20.10;99.90
5494;DHT22;2769;49.864;8.656;2022-09-11T07:59:06;20.40;99.90
5494;DHT22;2769;49.864;8.656;2022-09-11T08:01:34;20.80;99.90
5494;DHT22;2769;49.864;8.656;2022-09-11T08:04:04;20.90;99.90
5494;DHT22;2769;49.864;8.656;2022-09-11T08:06:34;20.50;99.90
5494;DHT22;2769;49.864;8.656;2022-09-11T08:09:04;20.70;99.90
5494;DHT22;2769;49.864;8.656;2022-09-11T08:11:36;21.10;99.90
5494;DHT22;2769;49.864;8.656;2022-09-11T08:14:04;21.40;99.90
5494;DHT22;2769;49.864;8.656;2022-09-11T08:16:33;21.20;99.90
5494;DHT22;2769;49.864;8.656;2022-09-11T08:19:02;21.10;99.90
5494;DHT22;2769;49.864;8.656;2022-09-11T08:21:31;21.10;99.90
5494;DHT22;2769;49.864;8.656;2022-09-11T08:23:59;21.40;99.90
5494;DHT22;2769;49.864;8.656;2022-09-11T08:26:28;21.40;99.90
5494;DHT22;2769;49.864;8.656;2022-09-11T08:28:58;21.40;99.90
5494;DHT22;2769;49.864;8.656;2022-09-11T08:31:28;21.60;99.90
5494;DHT22;2769;49.864;8.656;2022-09-11T08:33:56;21.40;99.90
5494;DHT22;2769;49.864;8.656;2022-09-11T08:36:24;21.80;99.90
5494;DHT22;2769;49.864;8.656;2022-09-11T08:38:52;21.80;99.90
5494;DHT22;2769;49.864;8.656;2022-09-11T08:41:30;21.80;99.90
5494;DHT22;2769;49.864;8.656;2022-09-11T08:44:03;21.90;99.90
5494;DHT22;2769;49.864;8.656;2022-09-11T08:46:35;21.90;99.90
5494;DHT22;2769;49.864;8.656;2022-09-11T08:49:13;21.70;99.90
5494;DHT22;2769;49.864;8.656;2022-09-11T08:51:42;21.50;99.90
5494;DHT22;2769;49.864;8.656;2022-09-11T08:54:21;21.30;99.90
5494;DHT22;2769;49.864;8.656;2022-09-11T09:00:06;21.50;99.90
5494;DHT22;2769;49.864;8.656;2022-09-11T09:02:59;21.80;99.90
5494;DHT22;2769;49.864;8.656;2022-09-11T09:05:34;22.20;99.90
5494;DHT22;2769;49.864;8.656;2022-09-11T09:08:25;22.60;99.90
5494;DHT22;2769;49.864;8.656;2022-09-11T09:11:00;22.60;99.90
5494;DHT22;2769;49.864;8.656;2022-09-11T09:13:45;23.00;99.90
5494;DHT22;2769;49.864;8.656;2022-09-11T09:16:34;23.70;99.90
5494;DHT22;2769;49.864;8.656;2022-09-11T09:19:11;24.50;99.90
5494;DHT22;2769;49.864;8.656;2022-09-11T09:21:45;24.50;99.90
5494;DHT22;2769;49.864;8.656;2022-09-11T09:24:17;24.90;99.90
5494;DHT22;2769;49.864;8.656;2022-09-11T09:26:49;25.10;99.90
5494;DHT22;2769;49.864;8.656;2022-09-11T09:29:20;24.50;99.90
5494;DHT22;2769;49.864;8.656;2022-09-11T09:31:53;23.80;99.90
5494;DHT22;2769;49.864;8.656;2022-09-11T09:34:25;23.40;99.90
5494;DHT22;2769;49.864;8.656;2022-09-11T09:37:01;23.00;99.90
5494;DHT22;2769;49.864;8.656;2022-09-11T09:39:31;23.10;99.90
5494;DHT22;2769;49.864;8.656;2022-09-11T09:42:23;23.60;99.90
5494;DHT22;2769;49.864;8.656;2022-09-11T09:47:47;23.70;99.90
5494;DHT22;2769;49.864;8.656;2022-09-11T09:50:18;23.90;99.90
5494;DHT22;2769;49.864;8.656;2022-09-11T09:52:48;24.40;99.90
5494;DHT22;2769;49.864;8.656;2022-09-11T09:55:18;25.20;99.90
5494;DHT22;2769;49.864;8.656;2022-09-11T09:57:47;26.20;99.90
5494;DHT22;2769;49.864;8.656;2022-09-11T10:00:17;27.20;99.90
5494;DHT22;2769;49.864;8.656;2022-09-11T10:02:49;27.60;99.90
5494;DHT22;2769;49.864;8.656;2022-09-11T10:05:25;28.40;99.90
5494;DHT22;2769;49.864;8.656;2022-09-11T10:07:55;28.50;99.90
5494;DHT22;2769;49.864;8.656;2022-09-11T10:10:27;28.20;99.90
5494;DHT22;2769;49.864;8.656;2022-09-11T10:12:57;27.10;99.90
5494;DHT22;2769;49.864;8.656;2022-09-11T10:15:47;26.50;99.90
5494;DHT22;2769;49.864;8.656;2022-09-11T10:18:35;24.70;99.90
5494;DHT22;2769;49.864;8.656;2022-09-11T10:21:20;24.10;99.90
5494;DHT22;2769;49.864;8.656;2022-09-11T10:23:52;23.40;99.90
5494;DHT22;2769;49.864;8.656;2022-09-11T10:26:26;23.30;99.90
5494;DHT22;2769;49.864;8.656;2022-09-11T10:28:58;22.90;99.90
5494;DHT22;2769;49.864;8.656;2022-09-11T10:31:28;23.40;99.90
5494;DHT22;2769;49.864;8.656;2022-09-11T10:33:59;24.10;99.90
5494;DHT22;2769;49.864;8.656;2022-09-11T10:36:28;24.30;99.90
5494;DHT22;2769;49.864;8.656;2022-09-11T10:38:58;24.50;99.90
5494;DHT22;2769;49.864;8.656;2022-09-11T10:41:28;24.80;99.90
5494;DHT22;2769;49.864;8.656;2022-09-11T10:44:00;25.30;99.90
5494;DHT22;2769;49.864;8.656;2022-09-11T10:46:35;26.00;99.90
5494;DHT22;2769;49.864;8.656;2022-09-11T10:49:15;26.00;99.90
5494;DHT22;2769;49.864;8.656;2022-09-11T10:51:58;25.10;99.90
5494;DHT22;2769;49.864;8.656;2022-09-11T10:54:43;24.50;99.90
5494;DHT22;2769;49.864;8.656;2022-09-11T10:57:17;24.30;99.90
5494;DHT22;2769;49.864;8.656;2022-09-11T10:59:55;24.30;99.90
5494;DHT22;2769;49.864;8.656;2022-09-11T11:02:28;24.30;99.90
5494;DHT22;2769;49.864;8.656;2022-09-11T11:05:02;24.00;99.90
5494;DHT22;2769;49.864;8.656;2022-09-11T11:07:47;24.00;99.90
5494;DHT22;2769;49.864;8.656;2022-09-11T11:10:30;23.70;99.90
5494;DHT22;2769;49.864;8.656;2022-09-11T11:13:09;23.30;99.90
5494;DHT22;2769;49.864;8.656;2022-09-11T11:15:50;23.60;99.90
5494;DHT22;2769;49.864;8.656;2022-09-11T11:21:32;23.30;99.90
5494;DHT22;2769;49.864;8.656;2022-09-11T11:24:09;23.10;99.90
5494;DHT22;2769;49.864;8.656;2022-09-11T11:26:48;23.20;99.90
5494;DHT22;2769;49.864;8.656;2022-09-11T11:29:42;23.60;99.90
5494;DHT22;2769;49.864;8.656;2022-09-11T11:32:32;23.60;99.90
5494;DHT22;2769;49.864;8.656;2022-09-11T11:35:18;24.10;99.90
5494;DHT22;2769;49.864;8.656;2022-09-11T11:37:51;23.90;99.90
5494;DHT22;2769;49.864;8.656;2022-09-11T11:40:25;24.10;99.90
5494;DHT22;2769;49.864;8.656;2022-09-11T11:42:57;23.70;99.90
5494;DHT22;2769;49.864;8.656;2022-09-11T11:45:31;23.80;99.90
5494;DHT22;2769;49.864;8.656;2022-09-11T11:48:06;23.60;99.90
5494;DHT22;2769;49.864;8.656;2022-09-11T11:50:40;23.30;99.90
5494;DHT22;2769;49.864;8.656;2022-09-11T11:53:18;23.20;99.90
5494;DHT22;2769;49.864;8.656;2022-09-11T11:55:58;23.10;99.90
5494;DHT22;2769;49.864;8.656;2022-09-11T11:58:39;23.10;99.90
5494;DHT22;2769;49.864;8.656;2022-09-11T12:01:16;22.80;99.90
5494;DHT22;2769;49.864;8.656;2022-09-11T12:03:49;22.80;99.90
5494;DHT22;2769;49.864;8.656;2022-09-11T12:06:17;22.70;99.90
5494;DHT22;2769;49.864;8.656;2022-09-11T12:08:47;23.10;99.90
5494;DHT22;2769;49.864;8.656;2022-09-11T12:11:21;23.00;99.90
5494;DHT22;2769;49.864;8.656;2022-09-11T12:13:53;23.10;99.90
5494;DHT22;2769;49.864;8.656;2022-09-11T12:16:25;23.20;99.90
5494;DHT22;2769;49.864;8.656;2022-09-11T12:19:04;23.20;99.90
5494;DHT22;2769;49.864;8.656;2022-09-11T12:21:39;23.70;99.90
5494;DHT22;2769;49.864;8.656;2022-09-11T12:24:14;23.80;99.90
5494;DHT22;2769;49.864;8.656;2022-09-11T12:26:43;23.80;99.90
5494;DHT22;2769;49.864;8.656;2022-09-11T12:32:42;24.10;99.90
5494;DHT22;2769;49.864;8.656;2022-09-11T12:35:17;24.20;99.90
5494;DHT22;2769;49.864;8.656;2022-09-11T12:37:52;24.30;99.90
5494;DHT22;2769;49.864;8.656;2022-09-11T12:40:30;24.70;99.90
5494;DHT22;2769;49.864;8.656;2022-09-11T12:43:16;25.40;99.90
5494;DHT22;2769;49.864;8.656;2022-09-11T12:45:52;25.70;99.90
5494;DHT22;2769;49.864;8.656;2022-09-11T12:48:21;25.70;99.90
5494;DHT22;2769;49.864;8.656;2022-09-11T12:50:53;25.80;99.90
5494;DHT22;2769;49.864;8.656;2022-09-11T12:53:24;26.00;99.90
5494;DHT22;2769;49.864;8.656;2022-09-11T12:55:57;26.00;99.90
5494;DHT22;2769;49.864;8.656;2022-09-11T12:58:29;27.00;99.90
5494;DHT22;2769;49.864;8.656;2022-09-11T13:01:04;28.30;99.90
5494;DHT22;2769;49.864;8.656;2022-09-11T13:03:33;28.70;99.90
5494;DHT22;2769;49.864;8.656;2022-09-11T13:06:05;28.80;99.90
5494;DHT22;2769;49.864;8.656;2022-09-11T13:08:37;28.70;99.90
5494;DHT22;2769;49.864;8.656;2022-09-11T13:11:37;28.70;99.90
5494;DHT22;2769;49.864;8.656;2022-09-11T13:14:45;28.70;99.90
5494;DHT22;2769;49.864;8.656;2022-09-11T13:17:16;28.80;99.90
5494;DHT22;2769;49.864;8.656;2022-09-11T13:19:52;28.20;99.90
5494;DHT22;2769;49.864;8.656;2022-09-11T13:22:25;28.90;99.90
5494;DHT22;2769;49.864;8.656;2022-09-11T13:25:04;30.50;96.40
5494;DHT22;2769;49.864;8.656;2022-09-11T13:27:34;32.10;92.50
5494;DHT22;2769;49.864;8.656;2022-09-11T13:30:06;33.20;88.80
5494;DHT22;2769;49.864;8.656;2022-09-11T13:32:35;33.90;84.80
5494;DHT22;2769;49.864;8.656;2022-09-11T13:35:07;32.00;78.20
5494;DHT22;2769;49.864;8.656;2022-09-11T13:37:39;30.90;86.50
5494;DHT22;2769;49.864;8.656;2022-09-11T13:40:17;30.40;87.20
5494;DHT22;2769;49.864;8.656;2022-09-11T13:42:48;30.40;89.10
5494;DHT22;2769;49.864;8.656;2022-09-11T13:45:18;30.60;89.60
5494;DHT22;2769;49.864;8.656;2022-09-11T13:47:48;30.40;90.30
5494;DHT22;2769;49.864;8.656;2022-09-11T13:50:17;30.10;89.50
5494;DHT22;2769;49.864;8.656;2022-09-11T13:52:47;30.20;89.80
5494;DHT22;2769;49.864;8.656;2022-09-11T13:55:18;30.80;90.00
5494;DHT22;2769;49.864;8.656;2022-09-11T13:57:53;32.10;85.60
5494;DHT22;2769;49.864;8.656;2022-09-11T14:00:42;31.90;80.60
5494;DHT22;2769;49.864;8.656;2022-09-11T14:03:17;33.40;81.60
5494;DHT22;2769;49.864;8.656;2022-09-11T14:05:48;33.30;76.40
5494;DHT22;2769;49.864;8.656;2022-09-11T14:08:21;34.20;74.20
5494;DHT22;2769;49.864;8.656;2022-09-11T14:10:52;36.00;71.40
5494;DHT22;2769;49.864;8.656;2022-09-11T14:13:25;36.00;66.90
5494;DHT22;2769;49.864;8.656;2022-09-11T14:16:01;35.20;68.10
5494;DHT22;2769;49.864;8.656;2022-09-11T14:18:33;35.10;68.30
5494;DHT22;2769;49.864;8.656;2022-09-11T14:21:04;34.70;67.20
5494;DHT22;2769;49.864;8.656;2022-09-11T14:23:42;34.00;69.70
5494;DHT22;2769;49.864;8.656;2022-09-11T14:26:13;33.00;70.20
5494;DHT22;2769;49.864;8.656;2022-09-11T14:28:57;31.60;74.20
5494;DHT22;2769;49.864;8.656;2022-09-11T14:31:32;31.00;77.60
5494;DHT22;2769;49.864;8.656;2022-09-11T14:34:15;30.10;80.00
5494;DHT22;2769;49.864;8.656;2022-09-11T14:36:47;29.80;82.90
5494;DHT22;2769;49.864;8.656;2022-09-11T14:39:23;31.10;81.40
5494;DHT22;2769;49.864;8.656;2022-09-11T14:41:56;32.50;75.50
5494;DHT22;2769;49.864;8.656;2022-09-11T14:44:27;34.70;71.00
5494;DHT22;2769;49.864;8.656;2022-09-11T14:46:55;35.40;65.00
5494;DHT22;2769;49.864;8.656;2022-09-11T14:49:25;34.90;65.60
5494;DHT22;2769;49.864;8.656;2022-09-11T14:51:54;34.20;65.90
5494;DHT22;2769;49.864;8.656;2022-09-11T14:54:25;33.30;68.90
5494;DHT22;2769;49.864;8.656;2022-09-11T14:56:56;32.00;73.90
5494;DHT22;2769;49.864;8.656;2022-09-11T14:59:26;31.50;78.20
5494;DHT22;2769;49.864;8.656;2022-09-11T15:01:55;31.10;77.50
5494;DHT22;2769;49.864;8.656;2022-09-11T15:04:25;32.70;75.90
5494;DHT22;2769;49.864;8.656;2022-09-11T15:06:55;34.40;69.20
5494;DHT22;2769;49.864;8.656;2022-09-11T15:09:25;35.40;67.00
5494;DHT22;2769;49.864;8.656;2022-09-11T15:11:54;35.80;64.00
5494;DHT22;2769;49.864;8.656;2022-09-11T15:14:22;36.00;62.10
5494;DHT22;2769;49.864;8.656;2022-09-11T15:17:13;36.30;62.40
5494;DHT22;2769;49.864;8.656;2022-09-11T15:19:41;37.30;60.90
5494;DHT22;2769;49.864;8.656;2022-09-11T15:22:11;37.80;61.20
5494;DHT22;2769;49.864;8.656;2022-09-11T15:24:39;38.40;58.00
5494;DHT22;2769;49.864;8.656;2022-09-11T15:27:08;36.80;57.80
5494;DHT22;2769;49.864;8.656;2022-09-11T15:29:36;35.70;58.80
5494;DHT22;2769;49.864;8.656;2022-09-11T15:32:05;33.40;62.30
5494;DHT22;2769;49.864;8.656;2022-09-11T15:34:37;31.80;66.60
5494;DHT22;2769;49.864;8.656;2022-09-11T15:37:06;30.30;70.40
5494;DHT22;2769;49.864;8.656;2022-09-11T15:39:34;29.50;72.20
5494;DHT22;2769;49.864;8.656;2022-09-11T15:42:02;28.60;76.30
5494;DHT22;2769;49.864;8.656;2022-09-11T15:44:34;28.00;77.10
5494;DHT22;2769;49.864;8.656;2022-09-11T15:47:02;27.30;80.00
5494;DHT22;2769;49.864;8.656;2022-09-11T15:49:30;26.90;83.30
5494;DHT22;2769;49.864;8.656;2022-09-11T15:52:00;26.70;85.00
5494;DHT22;2769;49.864;8.656;2022-09-11T15:54:28;26.40;85.00
5494;DHT22;2769;49.864;8.656;2022-09-11T15:56:56;26.10;86.10
5494;DHT22;2769;49.864;8.656;2022-09-11T15:59:24;26.10;87.30
5494;DHT22;2769;49.864;8.656;2022-09-11T16:01:52;26.00;87.10
5494;DHT22;2769;49.864;8.656;2022-09-11T16:04:24;26.10;88.10
5494;DHT22;2769;49.864;8.656;2022-09-11T16:06:54;26.00;89.30
5494;DHT22;2769;49.864;8.656;2022-09-11T16:09:24;26.20;89.70
5494;DHT22;2769;49.864;8.656;2022-09-11T16:11:56;26.20;89.80
5494;DHT22;2769;49.864;8.656;2022-09-11T16:14:27;26.00;90.10
5494;DHT22;2769;49.864;8.656;2022-09-11T16:16:57;25.80;91.10
5494;DHT22;2769;49.864;8.656;2022-09-11T16:19:26;25.90;90.70
5494;DHT22;2769;49.864;8.656;2022-09-11T16:21:56;25.90;91.10
5494;DHT22;2769;49.864;8.656;2022-09-11T16:24:28;25.80;91.20
5494;DHT22;2769;49.864;8.656;2022-09-11T16:26:56;25.70;92.10
5494;DHT22;2769;49.864;8.656;2022-09-11T16:29:27;25.50;91.70
5494;DHT22;2769;49.864;8.656;2022-09-11T16:32:15;25.00;92.80
5494;DHT22;2769;49.864;8.656;2022-09-11T16:34:54;23.70;92.50
5494;DHT22;2769;49.864;8.656;2022-09-11T16:37:25;24.90;94.10
5494;DHT22;2769;49.864;8.656;2022-09-11T16:39:56;25.10;93.80
5494;DHT22;2769;49.864;8.656;2022-09-11T16:42:24;25.10;93.70
5494;DHT22;2769;49.864;8.656;2022-09-11T16:44:52;24.50;94.60
5494;DHT22;2769;49.864;8.656;2022-09-11T16:47:20;24.70;95.60
5494;DHT22;2769;49.864;8.656;2022-09-11T16:49:49;24.80;96.50